Time;durP1;ratioP1;P1;durP2;ratioP2;P2;SDS_P1;SDS_P2;PMS_P1;PMS_P2;Temp;Humidity;BMP_temperature;BMP_pressure;BME280_temperature;BME280_humidity;BME280_pressure;Samples;Min_cycle;Max_cycle;Signal;HPM_P1;HPM_P2
2021/03/25 00:02:15;;;;;;;24.73;15.15;;;10.70;84.00;;;;;;5005556;28;20183;-82
2021/03/25 00:05:08;;;;;;;24.98;14.38;;;10.60;85.60;;;;;;5122350;27;20552;-82
2021/03/25 00:08:27;;;;;;;;;;;;;;;;;;;;;
2021/03/25 00:12:07;;;;;;;23.10;15.27;;;10.50;85.80;;;;;;5114695;27;20241;-83
2021/03/25 00:15:25;;;;;;;21.20;14.40;;;10.50;87.30;;;;;;5152393;27;20221;-82
2021/03/25 00:18:32;;;;;;;18.63;13.25;;;10.50;86.40;;;;;;5140119;27;20174;-82
2021/03/25 00:25:08;;;;;;;18.60;12.80;;;10.50;86.90;;;;;;5103458;28;20182;-83
2021/03/25 00:28:30;;;;;;;;;;;;;;;;;;;;;
2021/03/25 00:31:44;;;;;;;16.92;11.43;;;10.50;88.90;;;;;;5160273;27;20190;-83
2021/03/25 00:40:37;;;;;;;20.30;13.95;;;10.40;87.90;;;;;;5035163;28;20190;-83
2021/03/25 00:46:31;;;;;;;20.48;13.30;;;10.40;89.70;;;;;;5029991;28;20206;-82
2021/03/25 00:49:36;;;;;;;17.95;13.07;;;10.30;89.30;;;;;;5035007;28;20157;-81
2021/03/25 01:07:38;;;;;;;18.35;13.50;;;10.20;91.00;;;;;;5282373;23;20222;-83
2021/03/25 01:42:48;;;;;;;15.38;9.95;;;10.10;93.50;;;;;;5040533;28;20170;-83
2021/03/25 01:46:28;;;;;;;;;;;;;;;;;;;;;
2021/03/25 01:49:57;;;;;;;13.75;9.82;;;10.10;93.50;;;;;;5036467;28;20178;-82
2021/03/25 01:53:29;;;;;;;15.38;11.00;;;10.00;93.30;;;;;;5007792;28;20218;-83
2021/03/25 01:57:18;;;;;;;18.80;10.27;;;10.00;95.20;;;;;;5037517;28;20218;-84
2021/03/25 02:04:14;;;;;;;13.95;9.10;;;9.90;95.00;;;;;;4992925;28;20174;-84
2021/03/25 02:07:50;;;;;;;16.42;10.32;;;9.80;94.90;;;;;;5023638;28;20174;-84
2021/03/25 02:25:30;;;;;;;;;;;;;;;;;;;;;
2021/03/25 02:29:44;;;;;;;;;;;;;;;;;;;;;
2021/03/25 02:54:46;;;;;;;13.95;10.10;;;9.40;97.50;;;;;;5486148;23;20222;-84
2021/03/25 02:58:23;;;;;;;16.58;10.07;;;9.40;98.90;;;;;;4974155;28;20192;-84
2021/03/25 03:01:58;;;;;;;;;;;;;;;;;;;;;
2021/03/25 04:28:38;;;;;;;11.50;8.43;;;9.20;99.90;;;;;;5516131;23;20217;-77
2021/03/25 04:31:07;;;;;;;13.80;9.85;;;9.20;99.90;;;;;;5011062;28;20183;-78
2021/03/25 04:33:38;;;;;;;13.85;9.25;;;9.20;99.90;;;;;;5010622;28;20174;-77
2021/03/25 04:36:10;;;;;;;13.45;9.10;;;9.20;99.90;;;;;;5011746;28;20728;-78
2021/03/25 04:38:39;;;;;;;14.57;10.05;;;9.20;99.90;;;;;;5011275;28;20194;-78
2021/03/25 04:41:06;;;;;;;13.35;11.30;;;9.20;99.90;;;;;;5010526;28;20257;-78
2021/03/25 04:43:32;;;;;;;12.07;8.73;;;9.20;99.90;;;;;;5010494;28;20170;-78
2021/03/25 04:46:35;;;;;;;11.27;8.32;;;9.20;99.90;;;;;;5011463;28;20577;-78
2021/03/25 04:49:10;;;;;;;9.57;8.43;;;9.20;99.90;;;;;;5015435;28;20208;-78
2021/03/25 04:51:36;;;;;;;10.93;8.65;;;9.30;99.90;;;;;;5014457;28;20170;-78
2021/03/25 04:54:22;;;;;;;14.13;9.40;;;9.40;99.90;;;;;;5020467;28;20505;-78
2021/03/25 04:56:48;;;;;;;11.55;9.63;;;9.40;99.90;;;;;;5015304;28;20171;-78
2021/03/25 04:59:15;;;;;;;16.30;10.27;;;9.50;99.90;;;;;;5015314;28;20190;-78
2021/03/25 05:01:41;;;;;;;14.07;9.77;;;9.60;99.90;;;;;;5015306;28;20201;-78
2021/03/25 05:04:12;;;;;;;12.07;8.90;;;9.60;99.90;;;;;;5014136;28;20162;-78
2021/03/25 05:06:48;;;;;;;11.60;9.07;;;9.70;99.90;;;;;;5014992;28;20171;-78
2021/03/25 05:09:17;;;;;;;13.13;9.57;;;9.70;99.90;;;;;;4997733;28;20701;-78
2021/03/25 05:11:44;;;;;;;15.70;9.70;;;9.80;99.90;;;;;;5015025;28;20165;-78
2021/03/25 05:14:18;;;;;;;13.48;10.73;;;9.80;99.90;;;;;;5015153;28;20200;-78
2021/03/25 05:17:05;;;;;;;15.75;9.68;;;9.90;99.90;;;;;;5014646;28;20517;-78
2021/03/25 05:19:39;;;;;;;15.98;9.70;;;9.90;99.90;;;;;;5013709;28;20175;-78
2021/03/25 05:22:30;;;;;;;14.48;8.98;;;9.90;99.90;;;;;;5014926;28;20170;-78
2021/03/25 05:25:07;;;;;;;13.43;9.82;;;9.90;99.90;;;;;;5013839;28;20305;-78
2021/03/25 05:27:47;;;;;;;14.23;9.82;;;10.00;99.90;;;;;;5014377;28;20212;-78
2021/03/25 05:30:18;;;;;;;14.73;10.20;;;10.00;99.90;;;;;;5015291;28;20166;-78
2021/03/25 05:32:46;;;;;;;11.55;9.55;;;10.00;99.90;;;;;;5019123;28;20166;-78
2021/03/25 05:35:21;;;;;;;13.23;10.55;;;10.00;99.90;;;;;;5014669;28;20245;-78
2021/03/25 05:37:47;;;;;;;16.75;11.35;;;10.10;99.90;;;;;;5014316;28;20186;-78
2021/03/25 05:40:25;;;;;;;12.52;9.82;;;10.10;99.90;;;;;;4997020;28;20167;-78
2021/03/25 05:43:17;;;;;;;15.10;10.77;;;10.10;99.90;;;;;;5014022;28;20170;-77
2021/03/25 05:45:58;;;;;;;16.20;10.90;;;10.10;99.90;;;;;;5014434;28;20190;-78
2021/03/25 05:48:48;;;;;;;13.90;10.10;;;10.10;99.90;;;;;;5014016;28;20281;-79
2021/03/25 05:51:36;;;;;;;17.35;12.95;;;10.10;99.90;;;;;;5013464;28;20174;-77
2021/03/25 05:54:38;;;;;;;20.00;12.90;;;10.10;99.90;;;;;;5014382;28;20167;-78
2021/03/25 05:57:32;;;;;;;18.20;12.07;;;10.10;99.90;;;;;;5001039;28;20809;-78
2021/03/25 06:00:24;;;;;;;19.88;14.15;;;10.20;99.90;;;;;;5012368;28;20167;-78
2021/03/25 06:03:04;;;;;;;20.77;15.38;;;10.20;99.90;;;;;;5009272;28;20213;-78
2021/03/25 06:05:30;;;;;;;27.45;16.88;;;10.20;99.90;;;;;;4996880;28;20240;-78
2021/03/25 06:07:58;;;;;;;26.77;16.37;;;10.20;99.90;;;;;;5016460;28;20186;-78
2021/03/25 06:10:34;;;;;;;27.65;16.20;;;10.20;99.90;;;;;;4981624;28;20581;-78
2021/03/25 06:13:24;;;;;;;20.48;14.27;;;10.20;99.90;;;;;;5014087;28;20529;-79
2021/03/25 06:16:02;;;;;;;24.05;16.33;;;10.30;99.90;;;;;;5013892;28;20658;-79
2021/03/25 06:18:56;;;;;;;22.33;15.05;;;10.30;99.90;;;;;;4996020;28;20190;-79
2021/03/25 06:21:49;;;;;;;22.88;15.40;;;10.30;99.90;;;;;;5013899;28;20162;-78
2021/03/25 06:24:33;;;;;;;26.48;15.88;;;10.40;99.90;;;;;;5013795;28;20581;-79
2021/03/25 06:26:59;;;;;;;20.50;15.43;;;10.40;99.90;;;;;;5013276;28;20193;-78
2021/03/25 06:29:29;;;;;;;26.97;16.73;;;10.40;99.90;;;;;;5013551;28;20194;-79
2021/03/25 06:32:10;;;;;;;26.50;18.52;;;10.50;99.90;;;;;;5013716;28;20273;-79
2021/03/25 06:34:52;;;;;;;25.33;18.88;;;10.50;99.90;;;;;;5013602;28;20198;-79
2021/03/25 06:37:23;;;;;;;25.80;19.33;;;10.50;99.90;;;;;;5011723;28;20174;-79
2021/03/25 06:40:00;;;;;;;26.05;20.25;;;10.50;99.90;;;;;;5012337;28;20171;-79
2021/03/25 06:42:38;;;;;;;28.40;21.20;;;10.60;99.90;;;;;;5012478;28;20166;-79
2021/03/25 06:45:36;;;;;;;31.73;20.17;;;10.60;99.90;;;;;;5017223;28;20174;-79
2021/03/25 06:48:19;;;;;;;29.55;21.88;;;10.60;99.90;;;;;;5012672;28;20210;-79
2021/03/25 06:50:50;;;;;;;32.88;23.50;;;10.60;99.90;;;;;;5012107;28;20622;-78
2021/03/25 06:53:29;;;;;;;37.67;25.08;;;10.60;99.90;;;;;;5013163;28;20167;-79
2021/03/25 06:56:04;;;;;;;38.95;23.50;;;10.70;99.90;;;;;;5013184;28;20202;-78
2021/03/25 06:58:45;;;;;;;37.28;24.20;;;10.70;99.90;;;;;;4995798;28;20192;-79
2021/03/25 07:01:40;;;;;;;33.92;25.02;;;10.80;99.90;;;;;;5013705;28;20181;-78
2021/03/25 07:04:16;;;;;;;36.15;27.25;;;10.80;99.90;;;;;;5013451;28;20648;-78
2021/03/25 07:06:42;;;;;;;42.38;27.63;;;10.90;99.90;;;;;;5012840;28;20526;-78
2021/03/25 07:09:09;;;;;;;37.10;29.85;;;11.00;99.90;;;;;;5012363;28;20197;-79
2021/03/25 07:11:36;;;;;;;34.10;26.10;;;11.00;99.90;;;;;;5013147;28;20174;-79
2021/03/25 07:14:06;;;;;;;40.88;29.45;;;11.20;99.90;;;;;;5011739;28;20258;-79
2021/03/25 07:16:38;;;;;;;36.47;29.15;;;11.30;99.90;;;;;;5022125;28;20238;-80
2021/03/25 07:19:05;;;;;;;37.85;29.30;;;11.40;99.90;;;;;;5024988;28;20281;-81
2021/03/25 07:21:41;;;;;;;46.10;31.45;;;11.60;99.90;;;;;;5015270;28;20205;-81
2021/03/25 07:24:28;;;;;;;39.53;30.33;;;11.80;99.90;;;;;;5036185;28;20169;-81
2021/03/25 07:27:11;;;;;;;40.85;29.88;;;12.10;99.90;;;;;;5032226;28;20166;-80
2021/03/25 07:29:40;;;;;;;40.25;31.58;;;12.40;99.90;;;;;;5032637;28;20180;-81
2021/03/25 07:32:08;;;;;;;35.50;29.17;;;12.60;99.90;;;;;;5031813;28;20807;-81
2021/03/25 07:34:50;;;;;;;38.20;29.75;;;12.80;99.90;;;;;;5031330;28;20252;-81
2021/03/25 07:37:41;;;;;;;39.45;30.10;;;12.90;99.90;;;;;;5014626;28;20232;-81
2021/03/25 07:40:37;;;;;;;42.47;32.58;;;13.10;99.90;;;;;;5032583;28;20181;-81
2021/03/25 07:43:23;;;;;;;34.90;27.90;;;13.40;99.90;;;;;;5016185;28;20213;-81
2021/03/25 07:46:19;;;;;;;42.55;30.20;;;13.60;99.90;;;;;;5032457;28;20195;-81
2021/03/25 07:49:09;;;;;;;39.47;28.80;;;13.70;99.90;;;;;;5032233;28;20244;-81
2021/03/25 07:51:57;;;;;;;39.45;30.02;;;13.90;99.90;;;;;;5032811;28;20269;-81
2021/03/25 07:54:23;;;;;;;34.58;26.40;;;14.10;99.90;;;;;;5010707;28;20845;-81
2021/03/25 07:57:09;;;;;;;37.22;28.25;;;14.40;99.90;;;;;;5019316;28;20605;-81
2021/03/25 07:59:45;;;;;;;38.92;28.27;;;14.70;99.90;;;;;;5000868;28;20551;-81
2021/03/25 08:02:23;;;;;;;38.30;28.98;;;15.00;99.90;;;;;;4992740;28;20163;-80
2021/03/25 08:04:49;;;;;;;40.42;29.40;;;15.10;99.90;;;;;;4992717;28;20174;-81
2021/03/25 08:07:15;;;;;;;38.58;29.95;;;15.30;99.90;;;;;;4992485;28;20179;-81
2021/03/25 08:09:56;;;;;;;35.80;28.88;;;15.30;99.90;;;;;;5004709;28;20657;-80
2021/03/25 08:12:29;;;;;;;35.00;27.70;;;15.40;99.90;;;;;;5032088;28;20249;-80
2021/03/25 08:15:23;;;;;;;36.20;29.73;;;15.40;99.90;;;;;;5030539;28;20200;-80
2021/03/25 08:18:03;;;;;;;34.35;26.95;;;15.40;99.90;;;;;;5013321;28;20200;-80
2021/03/25 08:20:50;;;;;;;38.20;27.70;;;15.40;99.70;;;;;;5031061;28;20197;-80
2021/03/25 08:23:40;;;;;;;40.33;27.10;;;15.40;99.70;;;;;;5031640;28;20572;-80
2021/03/25 08:26:23;;;;;;;37.17;27.80;;;15.40;99.50;;;;;;5031518;28;20568;-81
2021/03/25 08:29:01;;;;;;;41.03;28.37;;;15.50;99.70;;;;;;5031439;28;21248;-80
2021/03/25 08:32:08;;;;;;;32.63;28.20;;;15.70;99.80;;;;;;5031760;28;20571;-81
2021/03/25 08:35:11;;;;;;;29.80;25.33;;;15.90;99.80;;;;;;5019975;28;20635;-81
2021/03/25 08:37:58;;;;;;;34.97;26.67;;;16.30;99.90;;;;;;5041155;28;20600;-80
2021/03/25 08:40:45;;;;;;;33.97;25.87;;;16.80;99.90;;;;;;5031692;28;20572;-80
2021/03/25 08:43:25;;;;;;;32.60;25.33;;;17.40;99.90;;;;;;5013633;28;20958;-80
2021/03/25 08:45:56;;;;;;;30.17;25.60;;;17.80;99.90;;;;;;5031697;28;20572;-80
2021/03/25 08:48:44;;;;;;;32.10;27.53;;;18.30;99.90;;;;;;5013737;28;20640;-80
2021/03/25 08:51:21;;;;;;;30.47;24.97;;;18.50;98.90;;;;;;5031919;28;20580;-81
2021/03/25 08:54:17;;;;;;;31.07;24.30;;;18.80;98.60;;;;;;5032618;28;20625;-80
2021/03/25 08:56:47;;;;;;;27.53;24.33;;;19.30;98.50;;;;;;5031790;28;20635;-80
2021/03/25 08:59:29;;;;;;;27.63;22.77;;;19.70;98.50;;;;;;5014228;28;20653;-80
2021/03/25 09:02:32;;;;;;;30.23;23.90;;;20.30;97.90;;;;;;5031551;28;20920;-81
2021/03/25 09:05:08;;;;;;;23.83;20.40;;;20.90;97.90;;;;;;5031592;28;21050;-80
2021/03/25 09:07:36;;;;;;;27.03;22.73;;;21.40;97.30;;;;;;5034207;28;20595;-80
2021/03/25 09:10:09;;;;;;;24.20;21.30;;;21.90;96.80;;;;;;5031216;28;20932;-79
2021/03/25 09:12:35;;;;;;;24.97;21.97;;;22.20;95.60;;;;;;5032503;28;20576;-80
2021/03/25 09:15:05;;;;;;;25.47;22.70;;;22.60;95.50;;;;;;5033049;28;20696;-80
2021/03/25 09:17:38;;;;;;;28.30;22.70;;;22.90;94.50;;;;;;5031473;28;20599;-80
2021/03/25 09:20:12;;;;;;;25.90;22.17;;;23.20;93.00;;;;;;5031006;28;20939;-80
2021/03/25 09:22:56;;;;;;;27.23;19.93;;;23.40;92.10;;;;;;5029797;28;21132;-81
2021/03/25 09:25:36;;;;;;;24.93;22.37;;;23.50;91.60;;;;;;5030919;28;20564;-80
2021/03/25 09:28:08;;;;;;;23.83;21.33;;;23.60;90.40;;;;;;5030088;28;20608;-80
2021/03/25 09:30:52;;;;;;;23.33;20.80;;;23.70;90.00;;;;;;5030812;28;20568;-80
2021/03/25 09:33:43;;;;;;;26.27;20.60;;;23.80;89.50;;;;;;5030918;28;20592;-81
2021/03/25 09:36:18;;;;;;;23.30;20.80;;;24.00;89.40;;;;;;5034338;28;21034;-81
2021/03/25 09:38:48;;;;;;;23.83;20.43;;;24.20;87.30;;;;;;5032689;28;20960;-80
2021/03/25 09:41:29;;;;;;;24.30;20.77;;;24.40;87.20;;;;;;5034259;28;20984;-81
2021/03/25 09:46:43;;;;;;;20.20;18.00;;;24.70;85.50;;;;;;5033881;28;20603;-80
2021/03/25 09:49:39;;;;;;;24.27;19.77;;;25.10;84.20;;;;;;5034073;28;20592;-80
2021/03/25 09:52:08;;;;;;;20.73;17.90;;;25.30;82.20;;;;;;5035516;28;20556;-80
2021/03/25 09:54:36;;;;;;;23.10;18.87;;;25.50;80.90;;;;;;5034020;28;20650;-80
2021/03/25 09:57:19;;;;;;;22.63;19.20;;;25.80;80.90;;;;;;5033743;28;20564;-80
2021/03/25 09:59:57;;;;;;;20.97;18.77;;;26.10;78.60;;;;;;5034199;28;20932;-80
2021/03/25 10:02:37;;;;;;;18.23;16.27;;;26.10;75.80;;;;;;5033994;28;20927;-80
2021/03/25 10:05:25;;;;;;;20.77;18.57;;;26.20;76.40;;;;;;5034050;28;20556;-79
2021/03/25 10:07:54;;;;;;;20.00;17.90;;;26.20;75.20;;;;;;5032142;28;20650;-80
2021/03/25 10:10:40;;;;;;;25.83;18.30;;;26.20;74.50;;;;;;5016247;28;20564;-80
2021/03/25 10:13:06;;;;;;;20.50;18.30;;;26.20;74.10;;;;;;5033874;28;20626;-80
2021/03/25 10:15:41;;;;;;;21.20;19.07;;;26.20;72.00;;;;;;5032489;28;20620;-80
2021/03/25 10:18:16;;;;;;;19.87;17.50;;;26.10;71.70;;;;;;5031881;28;20678;-81
2021/03/25 10:20:48;;;;;;;21.53;19.27;;;26.30;71.90;;;;;;5032335;28;20564;-80
2021/03/25 10:23:26;;;;;;;22.17;17.63;;;26.50;71.40;;;;;;5033557;28;20618;-80
2021/03/25 10:26:03;;;;;;;23.90;20.00;;;26.70;69.60;;;;;;5032485;28;20626;-81
2021/03/25 10:28:33;;;;;;;20.33;18.07;;;26.90;67.60;;;;;;5034689;28;20989;-80
2021/03/25 10:31:16;;;;;;;22.83;20.33;;;27.00;67.80;;;;;;5032839;28;20576;-80
2021/03/25 10:33:42;;;;;;;20.87;18.67;;;27.10;67.00;;;;;;5033367;28;21178;-80
2021/03/25 10:36:27;;;;;;;20.80;18.63;;;27.10;66.30;;;;;;5031857;28;20615;-80
2021/03/25 10:38:56;;;;;;;21.67;19.40;;;26.90;65.30;;;;;;5028988;28;20620;-80
2021/03/25 10:41:26;;;;;;;24.83;21.57;;;26.80;64.60;;;;;;5016098;28;20572;-81
2021/03/25 10:43:53;;;;;;;24.33;20.90;;;26.40;63.20;;;;;;5033254;28;20581;-81
2021/03/25 10:46:36;;;;;;;21.63;19.50;;;26.10;62.60;;;;;;5032577;28;20560;-82
2021/03/25 10:49:16;;;;;;;23.10;20.20;;;25.60;62.30;;;;;;5034299;28;20600;-82
2021/03/25 10:51:44;;;;;;;22.67;20.23;;;25.20;62.30;;;;;;5034734;28;20568;-82
2021/03/25 10:54:37;;;;;;;24.17;21.70;;;24.80;62.10;;;;;;5032607;28;20569;-81
2021/03/25 10:57:13;;;;;;;22.53;19.90;;;24.40;62.20;;;;;;5032962;28;20581;-82
2021/03/25 10:59:48;;;;;;;23.33;20.93;;;24.10;62.00;;;;;;5035481;28;20564;-82
2021/03/25 11:02:26;;;;;;;23.13;20.67;;;23.80;62.20;;;;;;5037851;28;20553;-83
2021/03/25 11:05:07;;;;;;;23.60;19.57;;;23.70;63.20;;;;;;5035163;28;20654;-82
2021/03/25 11:07:45;;;;;;;22.23;19.83;;;23.70;64.20;;;;;;5033364;28;20616;-82
2021/03/25 11:10:31;;;;;;;24.97;18.87;;;23.70;64.80;;;;;;5034403;28;20580;-80
2021/03/25 11:13:02;;;;;;;20.77;16.50;;;23.80;64.60;;;;;;5032555;28;20568;-77
2021/03/25 11:15:34;;;;;;;21.73;19.30;;;23.90;64.50;;;;;;5031051;28;20627;-76
2021/03/25 11:18:11;;;;;;;20.07;17.53;;;23.90;64.30;;;;;;5032105;28;20656;-76
2021/03/25 11:20:38;;;;;;;21.23;18.93;;;24.10;65.10;;;;;;5032342;28;20592;-76
2021/03/25 11:23:04;;;;;;;21.20;18.10;;;24.20;64.20;;;;;;5032495;28;20560;-79
2021/03/25 11:25:31;;;;;;;17.97;15.30;;;24.10;63.80;;;;;;5031199;28;21193;-80
2021/03/25 11:28:04;;;;;;;25.40;18.37;;;24.00;63.30;;;;;;5030765;28;20541;-81
2021/03/25 11:30:47;;;;;;;23.40;19.60;;;24.00;62.60;;;;;;5032408;28;20607;-81
2021/03/25 11:33:27;;;;;;;21.00;18.10;;;23.80;62.20;;;;;;5032328;28;20561;-81
2021/03/25 11:35:55;;;;;;;21.67;19.20;;;23.70;62.50;;;;;;5031002;28;20623;-81
2021/03/25 11:38:29;;;;;;;22.07;18.23;;;23.70;62.90;;;;;;5030315;28;20691;-80
2021/03/25 11:41:03;;;;;;;22.50;18.60;;;23.60;62.70;;;;;;5031126;28;20560;-81
2021/03/25 11:43:57;;;;;;;22.37;19.37;;;23.70;63.10;;;;;;5035959;28;20969;-81
2021/03/25 11:46:25;;;;;;;23.23;20.07;;;23.70;63.20;;;;;;5032135;28;20706;-80
2021/03/25 11:49:26;;;;;;;22.43;19.20;;;23.70;62.50;;;;;;5032002;28;20600;-80
2021/03/25 11:51:55;;;;;;;16.67;14.90;;;23.80;63.10;;;;;;5032083;28;21131;-80
2021/03/25 11:54:36;;;;;;;18.90;16.90;;;23.90;63.60;;;;;;5030561;28;20969;-80
2021/03/25 11:57:22;;;;;;;16.17;14.57;;;24.00;62.80;;;;;;5031072;28;20564;-79
2021/03/25 11:59:49;;;;;;;20.87;15.03;;;24.10;63.20;;;;;;5031244;28;20575;-78
2021/03/25 12:02:21;;;;;;;16.90;15.10;;;24.20;62.60;;;;;;5030076;28;21135;-78
2021/03/25 12:04:51;;;;;;;16.50;13.53;;;24.20;62.20;;;;;;5031638;28;20972;-78
2021/03/25 12:07:24;;;;;;;13.20;11.60;;;24.20;62.10;;;;;;5031435;28;20600;-78
2021/03/25 12:10:20;;;;;;;16.23;12.40;;;24.20;62.30;;;;;;5030489;28;20611;-78
2021/03/25 12:12:47;;;;;;;13.70;12.30;;;24.20;62.20;;;;;;5030289;28;20589;-78
2021/03/25 12:15:14;;;;;;;14.90;13.40;;;24.20;62.10;;;;;;5030197;28;20624;-78
2021/03/25 12:17:52;;;;;;;18.10;13.53;;;24.20;61.00;;;;;;5031177;28;21222;-78
2021/03/25 12:20:27;;;;;;;11.10;10.00;;;24.10;60.10;;;;;;5033181;28;20576;-78
2021/03/25 12:23:07;;;;;;;15.57;10.57;;;24.00;60.70;;;;;;5031460;28;20569;-78
2021/03/25 12:25:33;;;;;;;13.60;10.37;;;23.80;60.30;;;;;;5031413;28;20572;-78
2021/03/25 12:27:59;;;;;;;11.73;10.07;;;23.60;59.60;;;;;;5013035;28;20646;-78
2021/03/25 12:30:25;;;;;;;11.37;9.53;;;23.30;59.50;;;;;;5031276;28;20177;-79
2021/03/25 12:32:52;;;;;;;16.20;11.83;;;23.00;59.10;;;;;;5030196;28;20840;-79
2021/03/25 12:35:22;;;;;;;10.77;9.63;;;22.70;59.40;;;;;;5029844;28;20635;-79
2021/03/25 12:37:49;;;;;;;13.73;11.40;;;22.50;59.30;;;;;;5030759;28;20686;-79
2021/03/25 12:40:20;;;;;;;14.30;10.40;;;22.30;59.90;;;;;;5031380;28;20553;-79
2021/03/25 12:42:47;;;;;;;10.50;9.50;;;22.20;60.70;;;;;;5030497;28;20572;-79
2021/03/25 12:45:27;;;;;;;13.97;11.10;;;22.10;61.40;;;;;;5031781;28;20561;-78
2021/03/25 12:47:53;;;;;;;11.53;10.33;;;22.10;61.40;;;;;;5031085;28;21191;-79
2021/03/25 12:50:20;;;;;;;11.60;9.77;;;22.00;61.50;;;;;;5034084;28;20568;-80
2021/03/25 12:52:46;;;;;;;13.32;12.02;;;21.90;60.90;;;;;;5034265;28;20703;-79
2021/03/25 12:55:12;;;;;;;16.80;11.20;;;21.70;60.50;;;;;;5030072;28;20204;-79
2021/03/25 12:57:37;;;;;;;12.43;10.83;;;21.50;60.40;;;;;;5035291;28;20264;-79
2021/03/25 13:00:10;;;;;;;14.60;9.83;;;21.30;60.00;;;;;;5031354;28;21187;-80
2021/03/25 13:02:36;;;;;;;10.70;9.00;;;21.10;60.10;;;;;;5030939;28;20510;-80
2021/03/25 13:05:03;;;;;;;10.03;8.40;;;21.00;60.00;;;;;;5032488;28;20575;-79
2021/03/25 13:07:28;;;;;;;12.30;10.03;;;20.70;59.80;;;;;;5031491;28;20663;-79
2021/03/25 13:09:55;;;;;;;12.13;8.30;;;20.60;60.10;;;;;;5034870;28;21194;-81
2021/03/25 13:12:25;;;;;;;16.10;9.67;;;20.40;60.30;;;;;;5033927;28;20177;-79
2021/03/25 13:14:50;;;;;;;9.70;8.70;;;20.40;61.10;;;;;;5033430;28;20638;-79
2021/03/25 13:17:17;;;;;;;8.43;7.47;;;20.30;61.10;;;;;;5033978;28;21001;-79
2021/03/25 13:19:43;;;;;;;12.93;8.67;;;20.20;61.00;;;;;;5034862;28;20602;-78
2021/03/25 13:22:09;;;;;;;11.63;7.60;;;20.20;61.30;;;;;;5033333;28;20576;-81
2021/03/25 13:24:34;;;;;;;8.17;7.27;;;20.10;61.40;;;;;;5034660;28;20662;-81
2021/03/25 13:27:00;;;;;;;9.57;7.90;;;20.10;61.60;;;;;;5034346;28;20173;-81
2021/03/25 13:29:28;;;;;;;10.50;7.17;;;20.10;61.90;;;;;;5033211;28;20937;-81
2021/03/25 13:31:53;;;;;;;10.43;8.40;;;20.10;61.90;;;;;;5034649;28;20165;-81
2021/03/25 13:34:19;;;;;;;8.27;6.20;;;20.00;62.00;;;;;;5040229;28;20568;-80
2021/03/25 13:36:45;;;;;;;10.00;6.47;;;20.00;62.10;;;;;;5032910;28;20572;-80
2021/03/25 13:39:11;;;;;;;8.43;7.63;;;20.00;62.20;;;;;;5033048;28;20232;-81
2021/03/25 13:41:37;;;;;;;9.87;8.20;;;19.90;62.30;;;;;;5034240;28;20250;-80
2021/03/25 13:44:03;;;;;;;13.03;9.17;;;19.90;62.60;;;;;;5034782;28;20571;-79
2021/03/25 13:46:29;;;;;;;11.07;9.90;;;19.80;62.50;;;;;;5034471;28;20583;-79
2021/03/25 13:48:56;;;;;;;12.13;9.40;;;19.80;62.70;;;;;;5033511;28;20592;-79
2021/03/25 13:51:22;;;;;;;10.20;9.20;;;19.70;62.60;;;;;;5034531;28;20931;-79
2021/03/25 13:53:48;;;;;;;12.53;9.17;;;19.60;62.70;;;;;;5033550;28;20576;-78
2021/03/25 13:56:15;;;;;;;11.13;9.37;;;19.60;63.00;;;;;;5034585;28;20619;-79
2021/03/25 13:58:40;;;;;;;15.13;9.47;;;19.50;63.20;;;;;;5033875;28;20584;-79
2021/03/25 14:01:08;;;;;;;9.90;8.47;;;19.50;63.30;;;;;;5033213;28;20683;-80
2021/03/25 14:03:34;;;;;;;10.03;7.70;;;19.50;63.60;;;;;;5035168;28;20556;-80
2021/03/25 14:06:00;;;;;;;8.20;7.30;;;19.50;63.80;;;;;;5035239;28;20583;-79
2021/03/25 14:08:26;;;;;;;10.43;8.77;;;19.50;63.80;;;;;;5033093;28;20603;-79
2021/03/25 14:10:53;;;;;;;8.07;7.27;;;19.50;63.80;;;;;;5045470;28;20622;-80
2021/03/25 14:13:20;;;;;;;7.13;6.40;;;19.40;63.70;;;;;;5034410;28;20227;-79
2021/03/25 14:15:48;;;;;;;8.27;7.27;;;19.40;63.70;;;;;;5033352;28;20615;-79
2021/03/25 14:18:23;;;;;;;11.93;6.93;;;19.40;63.80;;;;;;5034064;28;20620;-79
2021/03/25 14:20:49;;;;;;;7.73;7.00;;;19.30;63.60;;;;;;5032339;28;20614;-80
2021/03/25 14:23:17;;;;;;;9.73;8.30;;;19.30;63.50;;;;;;5034683;28;20600;-80
2021/03/25 14:25:45;;;;;;;8.90;7.03;;;19.20;63.30;;;;;;5033726;28;20947;-79
2021/03/25 14:28:14;;;;;;;10.40;8.00;;;19.10;63.40;;;;;;5032830;28;20643;-78
2021/03/25 14:30:40;;;;;;;8.13;7.33;;;19.10;63.70;;;;;;5032717;28;21265;-78
2021/03/25 14:33:08;;;;;;;10.43;7.63;;;19.00;63.80;;;;;;5033363;28;20621;-78
2021/03/25 14:35:37;;;;;;;8.93;8.03;;;18.90;64.00;;;;;;5032026;28;20623;-80
2021/03/25 14:38:04;;;;;;;11.80;8.43;;;19.00;65.20;;;;;;5015018;28;20593;-78
2021/03/25 14:40:31;;;;;;;8.63;6.97;;;18.90;64.40;;;;;;5033307;28;20565;-78
2021/03/25 14:42:57;;;;;;;7.53;6.70;;;18.90;64.50;;;;;;5033169;28;21201;-79
2021/03/25 14:45:25;;;;;;;10.80;6.97;;;19.00;64.60;;;;;;5031988;28;20603;-79
2021/03/25 14:47:52;;;;;;;8.23;6.90;;;19.00;64.60;;;;;;5034207;28;20626;-77
2021/03/25 14:50:19;;;;;;;8.33;7.53;;;19.00;64.80;;;;;;5035807;28;20608;-77
2021/03/25 14:52:45;;;;;;;8.77;6.77;;;19.00;65.10;;;;;;5031557;28;20641;-78
2021/03/25 14:55:12;;;;;;;9.57;8.47;;;18.90;65.20;;;;;;5032649;28;20615;-79
2021/03/25 14:57:38;;;;;;;9.20;7.30;;;18.90;65.70;;;;;;5031516;28;20194;-79
2021/03/25 15:00:12;;;;;;;9.33;7.03;;;18.90;65.90;;;;;;5031794;28;20612;-78
2021/03/25 15:02:38;;;;;;;10.87;7.00;;;18.90;66.40;;;;;;5033093;28;21133;-78
2021/03/25 15:05:05;;;;;;;9.53;6.70;;;18.80;66.40;;;;;;5031588;28;21203;-79
2021/03/25 15:07:31;;;;;;;7.97;7.17;;;18.80;66.60;;;;;;5014665;28;20627;-78
2021/03/25 15:10:00;;;;;;;8.20;7.43;;;18.70;66.60;;;;;;5031709;28;20572;-79
2021/03/25 15:12:26;;;;;;;11.77;7.90;;;18.60;66.80;;;;;;5032562;28;20635;-78
2021/03/25 15:14:54;;;;;;;7.90;6.80;;;18.60;67.20;;;;;;5014881;28;21043;-78
2021/03/25 15:17:20;;;;;;;7.63;6.83;;;18.40;67.20;;;;;;5028622;28;20592;-79
2021/03/25 15:19:46;;;;;;;8.67;6.20;;;18.40;67.30;;;;;;5024480;28;20584;-79
2021/03/25 15:22:12;;;;;;;7.07;6.37;;;18.30;67.50;;;;;;5014616;28;20572;-80
2021/03/25 15:24:39;;;;;;;7.33;6.73;;;18.20;68.60;;;;;;5033164;28;21119;-79
2021/03/25 15:27:05;;;;;;;5.77;4.73;;;18.20;68.00;;;;;;5032518;28;21021;-79
2021/03/25 15:29:31;;;;;;;6.17;5.43;;;18.10;68.00;;;;;;5032423;28;20619;-79
2021/03/25 15:31:57;;;;;;;7.13;4.40;;;18.10;68.10;;;;;;5031296;28;20903;-79
2021/03/25 15:34:23;;;;;;;6.73;5.20;;;18.00;67.90;;;;;;5032439;28;20244;-79
2021/03/25 15:36:49;;;;;;;5.10;4.07;;;18.00;67.90;;;;;;5031657;28;20691;-80
2021/03/25 15:39:18;;;;;;;5.43;3.90;;;17.90;68.10;;;;;;5032441;28;20185;-80
2021/03/25 15:41:43;;;;;;;8.33;5.03;;;17.90;68.10;;;;;;5031992;28;20553;-80
2021/03/25 15:44:19;;;;;;;4.40;3.63;;;17.80;67.90;;;;;;5031004;28;20572;-80
2021/03/25 15:46:45;;;;;;;6.17;3.60;;;17.80;68.10;;;;;;5031670;28;20157;-79
2021/03/25 15:49:11;;;;;;;6.33;4.23;;;17.70;68.00;;;;;;5031887;28;20596;-79
2021/03/25 15:51:37;;;;;;;5.90;3.83;;;17.60;68.00;;;;;;5031947;28;20593;-80
2021/03/25 15:54:03;;;;;;;5.10;3.90;;;17.50;68.20;;;;;;5030945;28;20630;-78
2021/03/25 15:56:29;;;;;;;6.60;4.60;;;17.50;68.40;;;;;;5031590;28;20246;-78
2021/03/25 15:58:54;;;;;;;6.03;4.10;;;17.40;68.40;;;;;;5030469;28;20650;-80
2021/03/25 16:01:21;;;;;;;6.10;3.93;;;17.40;68.60;;;;;;5032107;28;21345;-80
2021/03/25 16:03:47;;;;;;;4.20;3.80;;;17.30;68.70;;;;;;5035541;28;20212;-79
2021/03/25 16:06:13;;;;;;;8.80;4.37;;;17.30;69.10;;;;;;5031535;28;20557;-79
2021/03/25 16:08:40;;;;;;;5.97;5.37;;;17.20;69.40;;;;;;5031043;28;20695;-79
2021/03/25 16:11:06;;;;;;;6.00;4.67;;;17.10;69.90;;;;;;5031338;28;20572;-79
2021/03/25 16:13:32;;;;;;;6.80;4.70;;;17.10;70.40;;;;;;5031500;28;20659;-78
2021/03/25 16:15:57;;;;;;;8.60;4.67;;;17.00;70.60;;;;;;5029281;28;21038;-80
2021/03/25 16:18:24;;;;;;;8.17;4.80;;;17.00;71.00;;;;;;5023157;28;20601;-79
2021/03/25 16:20:53;;;;;;;5.07;4.43;;;17.00;71.40;;;;;;5030013;28;20243;-78
2021/03/25 16:23:25;;;;;;;5.57;4.10;;;16.90;72.10;;;;;;5031298;28;20604;-78
2021/03/25 16:25:52;;;;;;;4.50;3.77;;;16.90;72.30;;;;;;5031266;28;20609;-78
2021/03/25 16:28:19;;;;;;;6.13;4.70;;;16.80;72.30;;;;;;5029243;28;20623;-80
2021/03/25 16:30:46;;;;;;;6.60;5.90;;;16.80;72.70;;;;;;5040175;23;20758;-80
2021/03/25 16:33:15;;;;;;;5.80;4.60;;;16.60;77.90;;;;;;4974515;28;20175;-78
2021/03/25 16:35:43;;;;;;;6.70;3.77;;;16.60;76.00;;;;;;4992058;28;21017;-80
2021/03/25 16:38:15;;;;;;;6.03;5.20;;;16.60;75.70;;;;;;4974651;28;20562;-82
2021/03/25 16:40:42;;;;;;;5.40;4.87;;;16.60;75.50;;;;;;4975065;28;20653;-81